Time;durP1;ratioP1;P1;durP2;ratioP2;P2;SDS_P1;SDS_P2;PMS_P1;PMS_P2;Temp;Humidity;BMP_temperature;BMP_pressure;BME280_temperature;BME280_humidity;BME280_pressure;Samples;Min_cycle;Max_cycle;Signal;HPM_P1;HPM_P2
2023/03/07 00:01:20;;;;;;;;;;;;;;;5.89;69.92;99083.22;5030643;28;19921;-62
2023/03/07 00:03:45;;;;;;;;;;;;;;;5.96;69.63;99073.34;5031184;28;19913;-62
2023/03/07 00:06:11;;;;;;;;;;;;;;;5.93;69.37;99071.66;5030051;28;19924;-62
2023/03/07 00:08:36;;;;;;;;;;;;;;;5.96;70.03;99066.31;5031117;28;19924;-62
2023/03/07 00:11:03;;;;;;;;;;;;;;;5.91;69.71;99070.00;5030476;28;20231;-62
2023/03/07 00:13:30;;;;;;;;;;;;;;;5.88;70.23;99070.94;5030228;28;20002;-63
2023/03/07 00:15:58;;;;;;;;;;;;;;;5.85;70.01;99070.19;5030449;28;19917;-63
2023/03/07 00:18:24;;;;;;;;;;;;;;;5.81;70.13;99068.47;5029909;28;20356;-63
2023/03/07 00:20:59;;;;;;;;;;;;;;;5.84;69.62;99071.06;5030200;28;20003;-62
2023/03/07 00:23:24;;;;;;;;;;;;;;;5.84;69.97;99074.56;5029322;28;19917;-63
2023/03/07 00:26:03;;;;;;;;;;;;;;;5.84;69.95;99073.69;5029728;28;19917;-63
2023/03/07 00:28:28;;;;;;;;;;;;;;;5.85;70.00;99071.00;5029544;28;19963;-63
2023/03/07 00:30:58;;;;;;;;;;;;;;;5.87;70.04;99071.84;5028512;28;19917;-63
2023/03/07 00:33:23;;;;;;;;;;;;;;;5.93;69.48;99074.28;5028100;28;19921;-63
2023/03/07 00:35:55;;;;;;;;;;;;;;;5.92;69.64;99067.31;5028930;28;19917;-63
2023/03/07 00:38:20;;;;;;;;;;;;;;;5.94;69.01;99065.50;5029087;28;19920;-63
2023/03/07 00:40:46;;;;;;;;;;;;;;;5.94;68.94;99059.34;5029546;28;19995;-62
2023/03/07 00:43:11;;;;;;;;;;;;;;;5.94;68.38;99056.69;5016759;28;19924;-62
2023/03/07 00:45:36;;;;;;;;;;;;;;;5.93;69.37;99057.63;5010438;28;19918;-62
2023/03/07 00:48:01;;;;;;;;;;;;;;;5.94;68.04;99061.97;5025366;28;20376;-63
2023/03/07 00:50:27;;;;;;;;;;;;;;;5.93;68.25;99053.19;5030474;28;19925;-63
2023/03/07 00:52:52;;;;;;;;;;;;;;;5.97;68.74;99059.25;5029213;28;19952;-62
2023/03/07 00:55:17;;;;;;;;;;;;;;;6.02;68.65;99054.69;5029687;28;19983;-62
2023/03/07 00:57:42;;;;;;;;;;;;;;;6.00;68.22;99061.78;5030264;28;20003;-63
2023/03/07 01:00:09;;;;;;;;;;;;;;;5.96;68.33;99055.75;5030184;28;19925;-63
2023/03/07 01:02:34;;;;;;;;;;;;;;;5.98;67.83;99053.91;5029233;28;20703;-62
2023/03/07 01:05:00;;;;;;;;;;;;;;;5.96;68.37;99053.13;5026685;28;19921;-62
2023/03/07 01:07:26;;;;;;;;;;;;;;;5.93;68.69;99050.53;5029483;28;19917;-62
2023/03/07 01:09:52;;;;;;;;;;;;;;;5.92;69.19;99045.31;5029894;28;19932;-63
2023/03/07 01:12:17;;;;;;;;;;;;;;;5.90;69.20;99049.75;5030237;28;19944;-62
2023/03/07 01:14:42;;;;;;;;;;;;;;;5.86;69.05;99045.50;5028854;28;19928;-62
2023/03/07 01:17:07;;;;;;;;;;;;;;;5.89;69.83;99034.84;5029985;28;19917;-62
2023/03/07 01:19:33;;;;;;;;;;;;;;;5.91;69.64;99038.31;5029201;28;19921;-62
2023/03/07 01:21:58;;;;;;;;;;;;;;;5.89;70.28;99034.84;5029719;28;19940;-62
2023/03/07 01:24:23;;;;;;;;;;;;;;;5.87;70.34;99036.66;5029863;28;19924;-63
2023/03/07 01:26:49;;;;;;;;;;;;;;;5.84;70.77;99039.41;5028971;28;19921;-62
2023/03/07 01:29:14;;;;;;;;;;;;;;;5.77;71.14;99030.75;5029882;28;19913;-62
2023/03/07 01:31:39;;;;;;;;;;;;;;;5.82;70.89;99035.91;5029333;28;19979;-63
2023/03/07 01:34:05;;;;;;;;;;;;;;;5.84;72.04;99031.47;5030534;28;19920;-63
2023/03/07 01:36:32;;;;;;;;;;;;;;;5.74;71.19;99027.34;5029920;28;20325;-62
2023/03/07 01:39:01;;;;;;;;;;;;;;;5.72;71.92;99024.75;5025328;28;19979;-62
2023/03/07 01:41:30;;;;;;;;;;;;;;;5.70;72.01;99018.66;5024215;28;19928;-63
2023/03/07 01:43:56;;;;;;;;;;;;;;;5.70;72.37;99012.53;5011072;28;19955;-62
2023/03/07 01:46:25;;;;;;;;;;;;;;;5.74;72.21;99011.53;5029842;28;19952;-62
2023/03/07 01:48:52;;;;;;;;;;;;;;;5.73;72.54;99007.16;5029831;28;20365;-62
2023/03/07 01:51:18;;;;;;;;;;;;;;;5.74;72.83;99004.47;5029692;28;20749;-62
2023/03/07 01:53:44;;;;;;;;;;;;;;;5.64;72.87;98999.50;5028995;28;19967;-62
2023/03/07 01:56:09;;;;;;;;;;;;;;;5.67;72.90;98997.66;5011397;28;19960;-62
2023/03/07 01:58:38;;;;;;;;;;;;;;;5.67;73.43;98991.53;5028488;28;19920;-63
2023/03/07 02:01:06;;;;;;;;;;;;;;;5.72;72.85;98989.59;5015102;28;19921;-63
2023/03/07 02:03:38;;;;;;;;;;;;;;;5.67;72.82;98978.34;5033342;28;19971;-63
2023/03/07 02:06:06;;;;;;;;;;;;;;;5.62;71.95;98977.59;5033400;28;19928;-62
2023/03/07 02:08:33;;;;;;;;;;;;;;;5.65;72.83;98975.72;5032792;28;19920;-63
2023/03/07 02:10:59;;;;;;;;;;;;;;;5.73;72.35;98970.22;5033199;28;20548;-62
2023/03/07 02:13:24;;;;;;;;;;;;;;;5.75;72.16;98971.06;5032908;28;19967;-62
2023/03/07 02:15:50;;;;;;;;;;;;;;;5.71;72.61;98969.41;5033094;28;19963;-63
2023/03/07 02:18:18;;;;;;;;;;;;;;;5.75;72.55;98968.41;5033028;28;19913;-62
2023/03/07 02:20:51;;;;;;;;;;;;;;;5.74;72.52;98962.28;5033095;28;19917;-63
2023/03/07 02:23:28;;;;;;;;;;;;;;;5.77;71.44;98961.28;5032292;28;20068;-62
2023/03/07 02:25:58;;;;;;;;;;;;;;;5.76;72.11;98959.59;5033381;28;19921;-63
2023/03/07 02:28:23;;;;;;;;;;;;;;;5.83;72.52;98955.88;5032736;28;19955;-62
2023/03/07 02:30:56;;;;;;;;;;;;;;;5.79;71.64;98954.22;5032988;28;20041;-62
2023/03/07 02:33:23;;;;;;;;;;;;;;;5.80;71.09;98956.78;5033187;28;19920;-62
2023/03/07 02:36:26;;;;;;;;;;;;;;;5.83;71.10;98955.88;5032656;28;19917;-63
2023/03/07 02:38:53;;;;;;;;;;;;;;;5.88;71.18;98953.97;4989922;28;20289;-62
2023/03/07 02:41:21;;;;;;;;;;;;;;;5.84;71.53;98954.97;4991137;28;19954;-63
2023/03/07 02:43:46;;;;;;;;;;;;;;;5.85;71.00;98948.81;4986843;28;19921;-62
2023/03/07 02:46:11;;;;;;;;;;;;;;;5.87;71.23;98941.66;4990960;28;19921;-62
2023/03/07 02:48:37;;;;;;;;;;;;;;;5.85;71.14;98943.53;4990193;28;19994;-62
2023/03/07 02:51:02;;;;;;;;;;;;;;;5.87;72.01;98941.66;4990633;28;19921;-62
2023/03/07 02:53:27;;;;;;;;;;;;;;;5.80;71.53;98946.25;4979160;28;20067;-62
2023/03/07 02:55:52;;;;;;;;;;;;;;;5.74;72.32;98943.81;4970976;28;19968;-62
2023/03/07 02:58:18;;;;;;;;;;;;;;;5.76;72.45;98941.13;4977795;28;19975;-62
2023/03/07 03:00:43;;;;;;;;;;;;;;;5.74;72.04;98945.56;4990716;28;19953;-63
2023/03/07 03:03:08;;;;;;;;;;;;;;;5.75;72.30;98939.41;4989979;28;19913;-63
2023/03/07 03:05:34;;;;;;;;;;;;;;;5.76;72.72;98938.47;4990015;28;20389;-63
2023/03/07 03:07:59;;;;;;;;;;;;;;;5.74;73.14;98935.00;4981066;28;19914;-63
2023/03/07 03:10:24;;;;;;;;;;;;;;;5.70;73.47;98923.69;5015403;28;19921;-62
2023/03/07 03:12:49;;;;;;;;;;;;;;;5.68;73.76;98929.94;5032628;28;19924;-64
2023/03/07 03:15:15;;;;;;;;;;;;;;;5.74;72.84;98929.75;5031487;28;20020;-64
2023/03/07 03:17:40;;;;;;;;;;;;;;;5.72;72.11;98928.91;5031926;28;19917;-63
2023/03/07 03:20:07;;;;;;;;;;;;;;;5.73;72.45;98928.03;5032026;28;19924;-63
2023/03/07 03:22:32;;;;;;;;;;;;;;;5.75;72.44;98936.75;5030976;28;20002;-63
2023/03/07 03:24:57;;;;;;;;;;;;;;;5.75;72.09;98929.69;5031361;28;19917;-63
2023/03/07 03:27:23;;;;;;;;;;;;;;;5.73;72.15;98918.34;5031417;28;19921;-63
2023/03/07 03:29:48;;;;;;;;;;;;;;;5.73;72.02;98928.03;5031150;28;19924;-63
2023/03/07 03:32:13;;;;;;;;;;;;;;;5.71;71.72;98924.56;5030663;28;19928;-63
2023/03/07 03:34:39;;;;;;;;;;;;;;;5.72;71.51;98929.78;5030920;28;19913;-63
2023/03/07 03:37:04;;;;;;;;;;;;;;;5.75;71.26;98915.66;5030155;28;19928;-64
2023/03/07 03:39:29;;;;;;;;;;;;;;;5.71;71.24;98919.28;5024711;28;19920;-63
2023/03/07 03:41:55;;;;;;;;;;;;;;;5.76;70.94;98912.09;5014587;28;20010;-63
2023/03/07 03:44:21;;;;;;;;;;;;;;;5.83;71.44;98913.66;5030041;28;19917;-64
2023/03/07 03:46:47;;;;;;;;;;;;;;;5.71;70.50;98903.47;5031432;28;19921;-61
2023/03/07 03:49:12;;;;;;;;;;;;;;;5.67;71.96;98907.97;5013708;28;19913;-61
2023/03/07 03:51:37;;;;;;;;;;;;;;;5.71;71.07;98898.19;5013421;28;19925;-61
2023/03/07 03:54:03;;;;;;;;;;;;;;;5.72;70.38;98900.78;5031212;28;19953;-61
2023/03/07 03:56:28;;;;;;;;;;;;;;;5.74;70.32;98898.09;5031297;28;20381;-61
2023/03/07 03:58:54;;;;;;;;;;;;;;;5.72;70.39;98899.91;5031455;28;19969;-61
2023/03/07 04:01:20;;;;;;;;;;;;;;;5.75;70.56;98902.47;5030850;28;20408;-63
2023/03/07 04:03:47;;;;;;;;;;;;;;;5.74;70.29;98898.09;5013141;28;20281;-62
2023/03/07 04:06:14;;;;;;;;;;;;;;;5.75;71.44;98894.56;5031012;28;19913;-62
2023/03/07 04:08:40;;;;;;;;;;;;;;;5.71;70.85;98892.91;5031320;28;20012;-62
2023/03/07 04:11:05;;;;;;;;;;;;;;;5.77;70.57;98892.69;5030095;28;20019;-62
2023/03/07 04:13:31;;;;;;;;;;;;;;;5.78;70.75;98889.16;5030659;28;19913;-62
2023/03/07 04:15:57;;;;;;;;;;;;;;;5.73;70.86;98880.53;5030304;28;19981;-62
2023/03/07 04:18:22;;;;;;;;;;;;;;;5.73;70.36;98880.53;5030717;28;19917;-62
2023/03/07 04:20:48;;;;;;;;;;;;;;;5.74;70.50;98876.97;5031100;28;20380;-62
2023/03/07 04:23:14;;;;;;;;;;;;;;;5.71;70.11;98877.06;5029959;28;19979;-62
2023/03/07 04:25:39;;;;;;;;;;;;;;;5.71;70.02;98877.06;5030401;28;19940;-62
2023/03/07 04:28:05;;;;;;;;;;;;;;;5.74;70.17;98871.69;5031004;28;19944;-62
2023/03/07 04:30:30;;;;;;;;;;;;;;;5.46;69.62;98823.34;5030233;28;20351;-62
2023/03/07 04:32:55;;;;;;;;;;;;;;;5.76;70.13;98861.97;5017195;28;19945;-63
2023/03/07 04:35:20;;;;;;;;;;;;;;;5.77;70.20;98861.91;5011069;28;20316;-62
2023/03/07 04:37:46;;;;;;;;;;;;;;;5.79;70.01;98853.94;5023437;28;19964;-62
2023/03/07 04:40:12;;;;;;;;;;;;;;;5.77;70.05;98861.91;5030486;28;19913;-62
2023/03/07 04:42:37;;;;;;;;;;;;;;;5.79;70.09;98848.69;5029757;28;19917;-62
2023/03/07 04:45:02;;;;;;;;;;;;;;;5.75;70.50;98862.91;5029741;28;19929;-62
2023/03/07 04:47:28;;;;;;;;;;;;;;;5.78;70.04;98857.50;5029747;28;20689;-62
2023/03/07 04:49:53;;;;;;;;;;;;;;;5.75;70.44;98863.72;5029305;28;20482;-62
2023/03/07 04:52:18;;;;;;;;;;;;;;;5.71;69.76;98855.97;5029060;28;19923;-62
2023/03/07 04:54:44;;;;;;;;;;;;;;;5.72;70.70;98855.06;5029576;28;19913;-62
2023/03/07 04:57:09;;;;;;;;;;;;;;;5.71;70.29;98843.66;5027199;28;19967;-62
2023/03/07 04:59:37;;;;;;;;;;;;;;;5.74;70.38;98842.69;5029722;28;20012;-62
2023/03/07 05:02:03;;;;;;;;;;;;;;;5.76;70.44;98846.13;5030328;28;20028;-62
2023/03/07 05:04:29;;;;;;;;;;;;;;;5.69;70.06;98848.09;5029982;28;20432;-62
2023/03/07 05:06:54;;;;;;;;;;;;;;;5.74;69.92;98829.50;5029403;28;19917;-62
2023/03/07 05:09:19;;;;;;;;;;;;;;;5.70;70.12;98843.72;5029760;28;19924;-62
2023/03/07 05:11:44;;;;;;;;;;;;;;;5.73;70.36;98836.56;5030232;28;19917;-62
2023/03/07 05:14:10;;;;;;;;;;;;;;;5.76;69.88;98844.38;5029378;28;19921;-62
2023/03/07 05:16:35;;;;;;;;;;;;;;;5.74;69.79;98848.81;5030013;28;19940;-62
2023/03/07 05:19:00;;;;;;;;;;;;;;;5.76;70.72;98841.75;5029241;28;19917;-62
2023/03/07 05:21:26;;;;;;;;;;;;;;;5.75;69.31;98841.78;5030351;28;20411;-62
2023/03/07 05:23:51;;;;;;;;;;;;;;;5.69;69.63;98847.25;5029548;28;19917;-62
2023/03/07 05:26:16;;;;;;;;;;;;;;;5.76;69.52;98827.66;5029476;28;19948;-62
2023/03/07 05:28:41;;;;;;;;;;;;;;;5.76;69.69;98830.31;5029793;28;19940;-62
2023/03/07 05:31:07;;;;;;;;;;;;;;;5.78;69.89;98831.13;5029085;28;20038;-61
2023/03/07 05:33:32;;;;;;;;;;;;;;;5.73;69.40;98830.41;5028797;28;19917;-62
2023/03/07 05:35:58;;;;;;;;;;;;;;;5.72;68.91;98826.03;5029402;28;20430;-62
2023/03/07 05:38:23;;;;;;;;;;;;;;;5.75;69.62;98821.53;5028610;28;19927;-62
2023/03/07 05:40:48;;;;;;;;;;;;;;;5.75;69.85;98820.69;5029411;28;20289;-62
2023/03/07 05:43:14;;;;;;;;;;;;;;;5.67;69.22;98822.72;5024671;28;19918;-62
2023/03/07 05:45:39;;;;;;;;;;;;;;;5.69;69.29;98820.84;5009725;28;19963;-62
2023/03/07 05:48:04;;;;;;;;;;;;;;;5.72;69.12;98820.75;5011074;28;19940;-61
2023/03/07 05:50:30;;;;;;;;;;;;;;;5.70;69.92;98812.91;5027806;28;20399;-61
2023/03/07 05:52:55;;;;;;;;;;;;;;;5.72;69.67;98826.91;5022324;28;19935;-62
2023/03/07 05:55:20;;;;;;;;;;;;;;;5.70;69.62;98817.31;5019316;28;19921;-61
2023/03/07 05:57:45;;;;;;;;;;;;;;;5.70;69.90;98812.06;5029354;28;20008;-62
2023/03/07 06:00:11;;;;;;;;;;;;;;;5.72;69.22;98820.75;5028753;28;20373;-62
2023/03/07 06:02:36;;;;;;;;;;;;;;;5.69;69.39;98815.59;5029648;28;19923;-62
2023/03/07 06:05:01;;;;;;;;;;;;;;;5.75;70.28;98816.25;5028499;28;19940;-62
2023/03/07 06:07:27;;;;;;;;;;;;;;;5.73;69.21;98817.22;5029535;28;19921;-62
2023/03/07 06:09:52;;;;;;;;;;;;;;;5.77;69.33;98819.69;5027160;28;19932;-61
2023/03/07 06:12:17;;;;;;;;;;;;;;;5.76;69.64;98806.56;5028856;28;20401;-62
2023/03/07 06:14:42;;;;;;;;;;;;;;;5.77;68.68;98814.44;5027168;28;19925;-62
2023/03/07 06:17:08;;;;;;;;;;;;;;;5.82;69.01;98811.63;5026674;28;19970;-62
2023/03/07 06:19:33;;;;;;;;;;;;;;;5.81;69.08;98810.78;5026537;28;19921;-62
2023/03/07 06:21:58;;;;;;;;;;;;;;;5.84;69.50;98815.13;5029149;28;19921;-62
2023/03/07 06:24:24;;;;;;;;;;;;;;;5.76;68.71;98812.72;5025440;28;19921;-62
2023/03/07 06:26:49;;;;;;;;;;;;;;;5.80;69.14;98810.84;5028853;28;19928;-62
2023/03/07 06:29:14;;;;;;;;;;;;;;;5.88;68.66;98816.75;5027970;28;19917;-63
2023/03/07 06:31:39;;;;;;;;;;;;;;;5.83;68.59;98819.53;5028154;28;19964;-62
2023/03/07 06:34:05;;;;;;;;;;;;;;;5.83;69.20;98818.69;5029244;28;20296;-63
2023/03/07 06:36:30;;;;;;;;;;;;;;;5.82;68.68;98812.53;5019335;28;19917;-61
2023/03/07 06:38:55;;;;;;;;;;;;;;;5.93;68.71;98814.84;5018580;28;19990;-62
2023/03/07 06:41:20;;;;;;;;;;;;;;;5.94;68.93;98816.56;5026636;28;19927;-62
2023/03/07 06:43:49;;;;;;;;;;;;;;;5.88;68.55;98812.31;5023597;28;19921;-62
2023/03/07 06:46:16;;;;;;;;;;;;;;;5.88;67.90;98806.22;5027943;28;19948;-63
2023/03/07 06:48:42;;;;;;;;;;;;;;;5.92;68.06;98802.53;5029745;28;19917;-62
2023/03/07 06:51:08;;;;;;;;;;;;;;;5.89;68.04;98795.59;5029571;28;19975;-62
2023/03/07 06:53:33;;;;;;;;;;;;;;;5.87;68.05;98800.06;5000342;28;19960;-62
2023/03/07 06:55:59;;;;;;;;;;;;;;;5.89;67.96;98813.19;5026174;28;19964;-62
2023/03/07 06:58:24;;;;;;;;;;;;;;;5.95;67.84;98812.97;5030236;28;19928;-62
2023/03/07 07:00:49;;;;;;;;;;;;;;;5.94;67.80;98813.91;5030903;28;19921;-62
2023/03/07 07:03:15;;;;;;;;;;;;;;;5.96;67.60;98814.72;5029112;28;19913;-62
2023/03/07 07:05:40;;;;;;;;;;;;;;;6.00;67.33;98811.06;5029361;28;19928;-62
2023/03/07 07:08:05;;;;;;;;;;;;;;;6.01;68.03;98818.06;5028678;28;19917;-62
2023/03/07 07:10:30;;;;;;;;;;;;;;;6.04;67.38;98818.84;5030220;28;19925;-62
2023/03/07 07:12:56;;;;;;;;;;;;;;;6.04;66.70;98815.34;5029510;28;20320;-62
2023/03/07 07:15:23;;;;;;;;;;;;;;;6.12;66.69;98814.16;5027275;28;20024;-62
2023/03/07 07:17:49;;;;;;;;;;;;;;;6.20;66.72;98813.88;5027843;28;19932;-62
2023/03/07 07:20:14;;;;;;;;;;;;;;;6.19;66.80;98813.03;5029582;28;19967;-62
2023/03/07 07:22:40;;;;;;;;;;;;;;;6.21;65.91;98805.91;5028078;28;19948;-62
2023/03/07 07:25:05;;;;;;;;;;;;;;;6.27;66.30;98804.84;5028804;28;20384;-62
2023/03/07 07:27:30;;;;;;;;;;;;;;;6.24;65.70;98812.88;5029536;28;19942;-62
2023/03/07 07:29:56;;;;;;;;;;;;;;;6.28;65.88;98806.56;5020784;28;19929;-62
2023/03/07 07:32:21;;;;;;;;;;;;;;;6.34;66.36;98814.28;5016459;28;20043;-62
2023/03/07 07:34:46;;;;;;;;;;;;;;;6.40;65.55;98806.16;5028516;28;19954;-62
2023/03/07 07:37:11;;;;;;;;;;;;;;;6.46;65.81;98803.28;5029516;28;19925;-62
2023/03/07 07:39:39;;;;;;;;;;;;;;;6.49;65.18;98811.13;5026080;28;19928;-62
2023/03/07 07:42:04;;;;;;;;;;;;;;;6.51;65.01;98812.78;4995187;28;19925;-62
2023/03/07 07:44:30;;;;;;;;;;;;;;;6.56;64.65;98812.59;5020417;28;19921;-63
2023/03/07 07:46:56;;;;;;;;;;;;;;;6.54;65.89;98810.00;5016600;28;19926;-62
2023/03/07 07:49:21;;;;;;;;;;;;;;;6.54;65.18;98809.16;5014801;28;19967;-62
2023/03/07 07:51:46;;;;;;;;;;;;;;;6.54;64.88;98806.50;5030389;28;19921;-62
2023/03/07 07:54:11;;;;;;;;;;;;;;;6.58;65.11;98809.00;5027577;28;20452;-61
2023/03/07 07:56:37;;;;;;;;;;;;;;;6.60;64.32;98815.09;5029843;28;19940;-62
2023/03/07 07:59:02;;;;;;;;;;;;;;;6.60;65.62;98815.09;5030014;28;19921;-62
2023/03/07 08:01:27;;;;;;;;;;;;;;;6.58;66.21;98811.66;5018563;28;19933;-62
2023/03/07 08:03:53;;;;;;;;;;;;;;;6.52;65.47;98811.00;5029195;28;20380;-62
2023/03/07 08:06:23;;;;;;;;;;;;;;;6.52;65.99;98808.38;5018276;28;20373;-62
2023/03/07 08:08:49;;;;;;;;;;;;;;;6.50;66.36;98810.19;5021787;28;19925;-62
2023/03/07 08:11:14;;;;;;;;;;;;;;;6.53;66.30;98807.44;5026181;28;20377;-62
2023/03/07 08:13:40;;;;;;;;;;;;;;;6.51;66.52;98804.84;5020778;28;19917;-62
2023/03/07 08:16:09;;;;;;;;;;;;;;;6.61;66.72;98802.72;5030311;28;19936;-63
2023/03/07 08:18:34;;;;;;;;;;;;;;;6.67;65.83;98805.19;5030761;28;19923;-62
2023/03/07 08:21:00;;;;;;;;;;;;;;;6.72;66.06;98805.00;5030383;28;19992;-63
2023/03/07 08:23:25;;;;;;;;;;;;;;;6.71;66.21;98801.47;5029403;28;20412;-61
2023/03/07 08:25:50;;;;;;;;;;;;;;;6.67;66.74;98799.88;5028497;28;20055;-61
2023/03/07 08:28:15;;;;;;;;;;;;;;;6.68;66.07;98791.91;5029491;28;19913;-61
2023/03/07 08:30:41;;;;;;;;;;;;;;;6.73;66.49;98810.22;5029668;28;19948;-61
2023/03/07 08:33:06;;;;;;;;;;;;;;;6.72;66.39;98799.72;5028520;28;19917;-61
2023/03/07 08:35:31;;;;;;;;;;;;;;;6.71;66.08;98801.47;5028135;28;19956;-61
2023/03/07 08:37:58;;;;;;;;;;;;;;;6.78;66.56;98796.84;5029664;28;19913;-62
2023/03/07 08:40:25;;;;;;;;;;;;;;;6.79;66.40;98793.28;5012615;28;20007;-63
2023/03/07 08:42:50;;;;;;;;;;;;;;;6.81;67.69;98799.34;5030693;28;20403;-62
2023/03/07 08:45:15;;;;;;;;;;;;;;;6.96;67.05;98790.88;5029799;28;19921;-62
2023/03/07 08:47:41;;;;;;;;;;;;;;;6.90;65.74;98791.97;5030037;28;20411;-62
2023/03/07 08:50:06;;;;;;;;;;;;;;;6.98;65.20;98786.38;5030271;28;19934;-62
2023/03/07 08:52:31;;;;;;;;;;;;;;;6.95;65.58;98794.44;5026128;28;20012;-62
2023/03/07 08:54:57;;;;;;;;;;;;;;;6.98;65.56;98795.19;5027450;28;19921;-62
2023/03/07 08:57:23;;;;;;;;;;;;;;;6.94;64.49;98796.22;5030447;28;19920;-62
2023/03/07 08:59:48;;;;;;;;;;;;;;;7.07;64.22;98794.00;5028806;28;19921;-62
2023/03/07 09:02:14;;;;;;;;;;;;;;;7.08;64.10;98793.94;5029420;28;20266;-62
2023/03/07 09:04:39;;;;;;;;;;;;;;;7.15;64.05;98797.19;5024706;28;19944;-62
2023/03/07 09:07:04;;;;;;;;;;;;;;;7.23;63.61;98785.38;5029613;28;19928;-62
2023/03/07 09:09:30;;;;;;;;;;;;;;;7.24;62.63;98797.69;5029660;28;19928;-62
2023/03/07 09:11:55;;;;;;;;;;;;;;;7.17;63.07;98793.56;5029689;28;20303;-62
2023/03/07 09:14:20;;;;;;;;;;;;;;;7.15;62.93;98795.41;5029447;28;19975;-62
2023/03/07 09:16:46;;;;;;;;;;;;;;;7.33;63.56;98797.31;5030203;28;20405;-62
2023/03/07 09:19:11;;;;;;;;;;;;;;;7.30;62.74;98791.28;5027166;28;19923;-63
2023/03/07 09:21:36;;;;;;;;;;;;;;;7.26;62.72;98800.28;5029815;28;19983;-63
2023/03/07 09:24:02;;;;;;;;;;;;;;;7.24;62.05;98797.69;5029769;28;19920;-63
2023/03/07 09:26:28;;;;;;;;;;;;;;;7.40;62.31;98784.72;5029140;28;19929;-63
2023/03/07 09:28:53;;;;;;;;;;;;;;;7.37;62.57;98783.06;5029229;28;19924;-64
2023/03/07 09:31:18;;;;;;;;;;;;;;;7.39;62.82;98788.28;5028612;28;20007;-63
2023/03/07 09:33:44;;;;;;;;;;;;;;;7.48;62.62;98780.84;5029852;28;19957;-63
2023/03/07 09:36:10;;;;;;;;;;;;;;;7.44;62.72;98779.28;5029385;28;20361;-63
2023/03/07 09:38:36;;;;;;;;;;;;;;;7.47;63.29;98779.16;5020827;28;19932;-62
2023/03/07 09:41:20;;;;;;;;;;;;;;;7.43;62.40;98774.88;5011880;28;19917;-62
2023/03/07 09:43:58;;;;;;;;;;;;;;;7.48;62.08;98775.56;5029063;28;19917;-63
2023/03/07 09:46:32;;;;;;;;;;;;;;;7.48;61.86;98770.28;5009617;28;19924;-64
2023/03/07 09:49:07;;;;;;;;;;;;;;;7.55;62.03;98770.88;5009864;28;20164;-63
2023/03/07 09:51:36;;;;;;;;;;;;;;;7.50;61.03;98762.28;5009894;28;20373;-63
2023/03/07 09:54:22;;;;;;;;;;;;;;;7.41;60.35;98754.72;5022784;28;19925;-63
2023/03/07 09:56:51;;;;;;;;;;;;;;;7.44;61.34;98758.09;5028225;28;19916;-63
2023/03/07 09:59:21;;;;;;;;;;;;;;;7.44;61.46;98751.94;5010588;28;19927;-63
2023/03/07 10:01:49;;;;;;;;;;;;;;;7.39;60.08;98751.28;5029093;28;19917;-62
2023/03/07 10:04:19;;;;;;;;;;;;;;;7.39;59.66;98749.50;5029278;28;19925;-63
2023/03/07 10:06:48;;;;;;;;;;;;;;;7.31;59.27;98742.78;5028647;28;19940;-63
2023/03/07 10:09:17;;;;;;;;;;;;;;;7.36;59.74;98744.34;5029438;28;20003;-63
2023/03/07 10:12:03;;;;;;;;;;;;;;;7.22;59.69;98736.06;5028832;28;19928;-63
2023/03/07 10:14:31;;;;;;;;;;;;;;;7.29;59.41;98737.56;5028919;28;19925;-63
2023/03/07 10:17:03;;;;;;;;;;;;;;;7.23;58.55;98736.94;5029491;28;19921;-63
2023/03/07 10:19:37;;;;;;;;;;;;;;;7.37;59.57;98740.75;5027942;28;20027;-63
2023/03/07 10:22:02;;;;;;;;;;;;;;;7.42;59.54;98733.50;5029378;28;19917;-62
2023/03/07 10:24:39;;;;;;;;;;;;;;;7.36;59.18;98733.75;5032910;28;20399;-62
2023/03/07 10:27:06;;;;;;;;;;;;;;;7.39;58.85;98728.34;5031438;28;19921;-61
2023/03/07 10:29:52;;;;;;;;;;;;;;;7.43;57.44;98724.63;5031873;28;20007;-61
2023/03/07 10:32:36;;;;;;;;;;;;;;;7.50;57.05;98720.81;5030892;28;19921;-62
2023/03/07 10:35:10;;;;;;;;;;;;;;;7.50;56.12;98719.94;5014586;28;19944;-61
2023/03/07 10:37:36;;;;;;;;;;;;;;;7.59;55.91;98719.56;5032143;28;20093;-62
2023/03/07 10:40:02;;;;;;;;;;;;;;;7.65;54.89;98720.19;5031685;28;19921;-62
2023/03/07 10:42:32;;;;;;;;;;;;;;;7.79;55.51;98709.88;5033099;28;20353;-62
2023/03/07 10:44:57;;;;;;;;;;;;;;;7.90;53.98;98727.97;5032972;28;19924;-62
2023/03/07 10:47:24;;;;;;;;;;;;;;;7.96;54.05;98720.63;5032933;28;20444;-62
2023/03/07 10:49:52;;;;;;;;;;;;;;;8.07;52.79;98718.34;5031539;28;19917;-62
2023/03/07 10:52:17;;;;;;;;;;;;;;;8.18;52.42;98719.69;5032663;28;19921;-61
2023/03/07 10:54:42;;;;;;;;;;;;;;;8.47;51.96;98714.84;5032700;28;20414;-62
2023/03/07 10:57:09;;;;;;;;;;;;;;;8.68;51.73;98715.69;5032314;28;19983;-61
2023/03/07 10:59:36;;;;;;;;;;;;;;;8.76;50.87;98714.41;5013874;28;19917;-62
2023/03/07 11:02:04;;;;;;;;;;;;;;;9.09;50.97;98714.63;5019004;28;19967;-62
2023/03/07 11:04:42;;;;;;;;;;;;;;;9.15;50.03;98716.97;5025889;28;20265;-62
2023/03/07 11:07:21;;;;;;;;;;;;;;;9.24;49.95;98706.78;5032570;28;19921;-62
2023/03/07 11:09:47;;;;;;;;;;;;;;;9.25;49.74;98712.94;5031979;28;19932;-62
2023/03/07 11:12:17;;;;;;;;;;;;;;;9.29;49.28;98714.53;5031904;28;19917;-61
2023/03/07 11:14:47;;;;;;;;;;;;;;;9.55;49.35;98706.16;5029616;28;20046;-62
2023/03/07 11:17:38;;;;;;;;;;;;;;;9.59;49.26;98696.25;5032213;28;19921;-62
2023/03/07 11:20:16;;;;;;;;;;;;;;;9.64;49.18;98703.03;5028150;28;19943;-62
2023/03/07 11:22:41;;;;;;;;;;;;;;;9.54;48.46;98693.81;5031516;28;19925;-62
2023/03/07 11:25:25;;;;;;;;;;;;;;;9.48;48.60;98694.13;5031659;28;20020;-62
2023/03/07 11:27:51;;;;;;;;;;;;;;;9.31;48.52;98688.75;5031218;28;19928;-62
2023/03/07 11:30:26;;;;;;;;;;;;;;;9.44;48.95;98687.22;5032023;28;20296;-62
2023/03/07 11:32:54;;;;;;;;;;;;;;;9.23;48.04;98689.16;5031505;28;19999;-63
2023/03/07 11:35:42;;;;;;;;;;;;;;;9.31;48.73;98675.50;5030856;28;19921;-61
2023/03/07 11:38:14;;;;;;;;;;;;;;;9.42;48.25;98667.91;5017054;28;19972;-62
2023/03/07 11:40:39;;;;;;;;;;;;;;;9.46;47.74;98674.75;5019967;28;19917;-62
2023/03/07 11:43:14;;;;;;;;;;;;;;;9.54;48.00;98672.56;5031341;28;19920;-61
2023/03/07 11:45:42;;;;;;;;;;;;;;;9.47;48.02;98670.31;5017661;28;19937;-62
2023/03/07 11:48:22;;;;;;;;;;;;;;;9.39;47.77;98673.31;5031998;28;20290;-62
2023/03/07 11:50:52;;;;;;;;;;;;;;;9.21;47.52;98660.97;5031447;28;19963;-62
2023/03/07 11:53:24;;;;;;;;;;;;;;;9.26;47.97;98645.69;5031299;28;19925;-62
2023/03/07 11:56:15;;;;;;;;;;;;;;;9.16;48.09;98650.56;5030352;28;19925;-62
2023/03/07 11:58:53;;;;;;;;;;;;;;;9.17;48.43;98647.00;5013909;28;19917;-62
2023/03/07 12:01:54;;;;;;;;;;;;;;;9.24;47.74;98647.56;5029271;28;19939;-62
2023/03/07 12:04:32;;;;;;;;;;;;;;;9.15;47.57;98648.00;4928675;29;20081;-62
2023/03/07 12:06:57;;;;;;;;;;;;;;;9.24;48.50;98643.09;5006029;28;19972;-62
2023/03/07 12:09:32;;;;;;;;;;;;;;;9.28;47.92;98643.81;5030595;28;19960;-62
2023/03/07 12:12:00;;;;;;;;;;;;;;;9.37;48.57;98632.75;5030299;28;20382;-62
2023/03/07 12:14:47;;;;;;;;;;;;;;;9.52;47.29;98639.09;5030299;28;20008;-62
2023/03/07 12:17:17;;;;;;;;;;;;;;;9.32;47.07;98632.13;5028981;28;19956;-62
2023/03/07 12:20:01;;;;;;;;;;;;;;;9.28;47.53;98628.75;5030355;28;19917;-62
2023/03/07 12:22:34;;;;;;;;;;;;;;;9.27;47.35;98623.53;5029132;28;20308;-63
2023/03/07 12:25:08;;;;;;;;;;;;;;;9.42;47.50;98628.09;5031038;28;20389;-63
2023/03/07 12:27:33;;;;;;;;;;;;;;;9.59;47.70;98622.75;5012452;28;20443;-63
2023/03/07 12:30:01;;;;;;;;;;;;;;;9.52;46.95;98626.69;5030579;28;19933;-63
2023/03/07 12:32:26;;;;;;;;;;;;;;;9.46;47.05;98616.38;5030503;28;19924;-63
2023/03/07 12:34:59;;;;;;;;;;;;;;;9.47;46.87;98609.28;5031207;28;20308;-63
2023/03/07 12:37:29;;;;;;;;;;;;;;;9.48;47.09;98609.19;5031129;28;19921;-63
2023/03/07 12:39:57;;;;;;;;;;;;;;;9.52;46.78;98610.75;5029888;28;20462;-63
2023/03/07 12:42:37;;;;;;;;;;;;;;;9.60;47.44;98611.22;5030777;28;19917;-63
2023/03/07 12:45:08;;;;;;;;;;;;;;;9.61;45.92;98607.63;5029613;28;20010;-63
2023/03/07 12:47:42;;;;;;;;;;;;;;;9.48;45.82;98605.66;5030055;28;19921;-62
2023/03/07 12:50:13;;;;;;;;;;;;;;;9.46;45.50;98605.75;5029769;28;19924;-63
2023/03/07 12:52:43;;;;;;;;;;;;;;;9.23;45.97;98608.69;5030370;28;20404;-63
2023/03/07 12:55:21;;;;;;;;;;;;;;;9.19;45.90;98602.69;5030853;28;19917;-62
2023/03/07 12:58:03;;;;;;;;;;;;;;;9.48;46.07;98600.34;5028330;28;20020;-63
2023/03/07 13:00:29;;;;;;;;;;;;;;;9.66;45.48;98596.75;5028874;28;19913;-62